Denver, Colorado
Traffic Map
Current Weather Conditions
Denver, Colorado
Broken Clouds
Broken Clouds
52°
Feels Like: 52°
Wind Chill: 52° Ceiling: 600
Heat Index: 52° Visibility: 10mi
Dew Point: 51° Wind: 7mph
Humidity: 99% Direction: 230° (SW)
Pressure: 30.1in Gusts: 0mph
Raw Report DataKBKF 281158Z 23006KT 10SM BKN006 11/11 A3010 RMK AO2A SLP136 70007 T01090108 10145 20106 50009
Traffic Incident Summary
Active as of:
Severity:
Category:
InformationThere was an issue retrieving the traffic information for this location. Please try a different location or try again shortly.
Advertisements
Track Severe Weather on mobile